createdAt,value
2022-11-24T00:00:00.659Z,1.25
2022-11-24T00:02:29.386Z,1.10
2022-11-24T00:04:56.674Z,1.10
2022-11-24T00:07:23.773Z,1.00
2022-11-24T00:09:50.858Z,1.00
2022-11-24T00:12:17.964Z,0.85
2022-11-24T00:14:45.073Z,1.20
2022-11-24T00:17:12.173Z,1.23
2022-11-24T00:19:39.383Z,1.25
2022-11-24T00:22:06.472Z,1.08
2022-11-24T00:24:33.850Z,1.10
2022-11-24T00:27:01.194Z,1.10
2022-11-24T00:29:28.268Z,1.27
2022-11-24T00:31:57.208Z,0.98
2022-11-24T00:36:51.270Z,1.23
2022-11-24T00:39:18.432Z,1.00
2022-11-24T00:41:45.846Z,1.30
2022-11-24T00:44:13.044Z,1.30
2022-11-24T00:46:40.224Z,1.00
2022-11-24T00:49:07.393Z,1.10
2022-11-24T00:51:34.635Z,1.25
2022-11-24T00:54:02.104Z,1.15
2022-11-24T00:56:30.738Z,1.10
2022-11-24T00:58:57.847Z,1.20
2022-11-24T01:01:26.237Z,1.20
2022-11-24T01:03:55.110Z,1.20
2022-11-24T01:06:23.601Z,1.00
2022-11-24T01:08:50.749Z,1.00
2022-11-24T01:11:19.606Z,1.20
2022-11-24T01:13:48.169Z,0.90
2022-11-24T01:16:25.231Z,1.05
2022-11-24T01:18:52.745Z,1.00
2022-11-24T01:21:20.325Z,0.95
2022-11-24T01:23:47.781Z,1.00
2022-11-24T01:26:16.037Z,1.38
2022-11-24T01:28:47.150Z,1.15
2022-11-24T01:31:15.453Z,0.93
2022-11-24T01:33:42.928Z,0.90
2022-11-24T01:36:10.049Z,0.93
2022-11-24T01:38:38.685Z,1.08
2022-11-24T01:41:11.655Z,0.90
2022-11-24T01:43:38.950Z,1.05
2022-11-24T01:46:26.403Z,1.13
2022-11-24T01:48:57.705Z,0.90
2022-11-24T01:51:26.017Z,0.82
2022-11-24T01:53:56.414Z,0.80
2022-11-24T01:56:23.778Z,0.98
2022-11-24T01:58:51.993Z,0.88
2022-11-24T02:01:19.300Z,0.80
2022-11-24T02:03:47.471Z,1.13
2022-11-24T02:06:20.829Z,0.82
2022-11-24T02:08:51.773Z,1.10
2022-11-24T02:11:19.638Z,0.95
2022-11-24T02:13:48.753Z,1.00
2022-11-24T02:16:17.365Z,1.02
2022-11-24T02:18:44.831Z,0.80
2022-11-24T02:21:12.643Z,0.90
2022-11-24T02:23:45.955Z,0.82
2022-11-24T02:26:31.897Z,0.80
2022-11-24T02:28:59.245Z,0.98
2022-11-24T02:31:26.362Z,0.63
2022-11-24T02:33:53.778Z,0.82
2022-11-24T02:36:20.858Z,0.70
2022-11-24T02:38:47.938Z,0.80
2022-11-24T02:41:17.337Z,1.00
2022-11-24T02:43:47.220Z,0.90
2022-11-24T02:46:14.400Z,1.00
2022-11-24T02:48:41.733Z,0.95
2022-11-24T02:51:09.247Z,0.90
2022-11-24T02:53:36.319Z,0.75
2022-11-24T02:56:03.780Z,0.77
2022-11-24T02:58:30.947Z,0.80
2022-11-24T03:00:59.797Z,0.93
2022-11-24T03:03:27.519Z,0.88
2022-11-24T03:05:55.124Z,0.77
2022-11-24T03:08:22.222Z,1.00
2022-11-24T03:10:49.471Z,0.70
2022-11-24T03:13:16.814Z,0.95
2022-11-24T03:15:43.950Z,0.82
2022-11-24T03:18:11.128Z,0.70
2022-11-24T03:20:38.341Z,0.90
2022-11-24T03:23:05.460Z,1.05
2022-11-24T03:25:32.547Z,0.90
2022-11-24T03:27:59.775Z,0.85
2022-11-24T03:30:26.896Z,0.73
2022-11-24T03:32:54.045Z,0.82
2022-11-24T03:35:21.779Z,1.02
2022-11-24T03:37:49.105Z,0.70
2022-11-24T03:40:17.929Z,0.80
2022-11-24T03:42:45.125Z,0.90
2022-11-24T03:45:30.304Z,0.80
2022-11-24T03:47:59.333Z,0.98
2022-11-24T03:50:26.478Z,0.85
2022-11-24T03:52:53.658Z,0.82
2022-11-24T03:55:20.739Z,1.00
2022-11-24T03:57:47.912Z,0.80
2022-11-24T04:00:15.347Z,1.02
2022-11-24T04:02:42.440Z,1.00
2022-11-24T04:05:11.036Z,0.80
2022-11-24T04:07:38.177Z,0.90
2022-11-24T04:10:05.595Z,0.90
2022-11-24T04:12:44.825Z,0.80
2022-11-24T04:15:19.533Z,0.73
2022-11-24T04:17:47.275Z,0.95
2022-11-24T04:20:15.469Z,0.73
2022-11-24T04:22:43.097Z,1.10
2022-11-24T04:25:10.798Z,0.68
2022-11-24T04:27:38.527Z,0.90
2022-11-24T04:30:07.102Z,0.80
2022-11-24T04:32:34.202Z,1.05
2022-11-24T04:35:01.291Z,0.60
2022-11-24T04:37:28.565Z,1.27
2022-11-24T04:39:55.661Z,1.30
2022-11-24T04:42:22.856Z,0.70
2022-11-24T04:44:50.225Z,0.77
2022-11-24T04:47:24.197Z,0.90
2022-11-24T04:49:51.573Z,1.08
2022-11-24T04:52:22.626Z,0.88
2022-11-24T04:54:50.220Z,0.77
2022-11-24T04:57:18.361Z,0.73
2022-11-24T04:59:45.542Z,0.75
2022-11-24T05:02:13.039Z,0.80
2022-11-24T05:04:40.469Z,0.75
2022-11-24T05:07:07.697Z,1.00
2022-11-24T05:09:59.329Z,0.68
2022-11-24T05:12:31.105Z,0.95
2022-11-24T05:14:59.333Z,0.82
2022-11-24T05:17:29.541Z,0.70
2022-11-24T05:19:56.765Z,0.85
2022-11-24T05:22:23.909Z,0.63
2022-11-24T05:24:51.008Z,0.85
2022-11-24T05:27:18.114Z,0.90
2022-11-24T05:29:45.249Z,0.70
2022-11-24T05:32:13.931Z,0.80
2022-11-24T05:34:41.237Z,0.90
2022-11-24T05:37:08.448Z,0.80
2022-11-24T05:39:36.433Z,0.70
2022-11-24T05:42:23.303Z,0.90
2022-11-24T05:44:50.611Z,0.70
2022-11-24T05:47:17.767Z,0.70
2022-11-24T05:49:45.101Z,0.70
2022-11-24T05:52:12.745Z,1.05
2022-11-24T05:54:40.993Z,0.90
2022-11-24T05:57:08.104Z,1.10
2022-11-24T05:59:35.337Z,1.10
2022-11-24T06:02:03.063Z,0.90
2022-11-24T06:04:30.255Z,0.90
2022-11-24T06:06:57.907Z,0.80
2022-11-24T06:09:25.028Z,0.77
2022-11-24T06:11:52.184Z,0.73
2022-11-24T06:14:19.412Z,0.77
2022-11-24T06:16:47.171Z,0.70
2022-11-24T06:19:14.928Z,0.57
2022-11-24T06:21:42.058Z,0.70
2022-11-24T06:24:09.318Z,0.60
2022-11-24T06:26:36.513Z,0.60
2022-11-24T06:29:06.960Z,0.73
2022-11-24T06:31:34.154Z,0.73
2022-11-24T06:34:01.571Z,0.75
2022-11-24T06:36:28.685Z,0.55
2022-11-24T06:38:55.907Z,0.65
2022-11-24T06:41:23.061Z,0.75
2022-11-24T06:43:50.121Z,0.70
2022-11-24T06:46:17.770Z,0.60
2022-11-24T06:48:47.046Z,0.85
2022-11-24T06:51:14.404Z,0.80
2022-11-24T06:53:41.907Z,0.80
2022-11-24T06:56:16.167Z,0.57
2022-11-24T06:58:44.934Z,0.55
2022-11-24T07:01:22.763Z,0.50
2022-11-24T07:03:50.461Z,0.60
2022-11-24T07:06:20.570Z,0.95
2022-11-24T07:08:47.988Z,0.65
2022-11-24T07:11:16.825Z,0.63
2022-11-24T07:13:44.480Z,0.75
2022-11-24T07:16:30.019Z,0.70
2022-11-24T07:18:57.153Z,0.77
2022-11-24T07:21:25.246Z,0.63
2022-11-24T07:23:53.172Z,0.90
2022-11-24T07:26:20.587Z,0.65
2022-11-24T07:28:48.002Z,0.80
2022-11-24T07:31:20.273Z,0.73
2022-11-24T07:33:52.154Z,0.80
2022-11-24T07:36:19.662Z,0.60
2022-11-24T07:38:46.958Z,0.60
2022-11-24T07:41:15.795Z,0.90
2022-11-24T07:43:42.921Z,0.65
2022-11-24T07:46:12.157Z,0.52
2022-11-24T07:48:39.438Z,0.70
2022-11-24T07:51:06.808Z,0.68
2022-11-24T07:53:34.660Z,0.50
2022-11-24T07:56:02.653Z,0.60
2022-11-24T07:58:32.860Z,0.70
2022-11-24T08:01:00.529Z,0.57
2022-11-24T08:03:27.913Z,0.70
2022-11-24T08:08:46.381Z,0.50
2022-11-24T08:11:14.453Z,0.70
2022-11-24T08:13:41.573Z,0.40
2022-11-24T08:16:10.215Z,0.50
2022-11-24T08:18:38.169Z,0.50
2022-11-24T08:21:05.972Z,0.47
2022-11-24T08:23:33.547Z,0.55
2022-11-24T08:26:05.570Z,0.60
2022-11-24T08:28:33.288Z,0.55
2022-11-24T08:31:08.293Z,0.70
2022-11-24T08:33:37.959Z,0.82
2022-11-24T08:36:09.362Z,0.50
2022-11-24T08:38:36.562Z,0.70
2022-11-24T08:41:05.012Z,0.80
2022-11-24T08:43:32.162Z,0.60
2022-11-24T08:46:02.965Z,0.57
2022-11-24T08:48:30.664Z,0.50
2022-11-24T08:50:58.553Z,0.70
2022-11-24T08:53:26.178Z,0.80
2022-11-24T08:55:53.294Z,0.60
2022-11-24T08:58:20.422Z,0.85
2022-11-24T09:00:47.537Z,0.70
2022-11-24T09:03:14.801Z,0.57
2022-11-24T09:05:57.257Z,0.52
2022-11-24T09:08:24.381Z,0.80
2022-11-24T09:10:51.689Z,1.02
2022-11-24T09:13:18.871Z,1.00
2022-11-24T09:15:46.145Z,1.00
2022-11-24T09:18:13.237Z,1.27
2022-11-24T09:20:40.732Z,1.27
2022-11-24T09:23:08.065Z,1.13
2022-11-24T09:25:35.144Z,1.20
2022-11-24T09:28:02.488Z,1.08
2022-11-24T09:30:29.886Z,1.30
2022-11-24T09:32:57.424Z,1.38
2022-11-24T09:35:24.987Z,1.23
2022-11-24T09:37:53.474Z,1.20
2022-11-24T09:40:20.922Z,1.20
2022-11-24T09:43:00.173Z,1.50
2022-11-24T09:46:05.111Z,1.20
2022-11-24T09:48:37.044Z,1.05
2022-11-24T09:51:05.194Z,1.30
2022-11-24T09:53:35.023Z,1.10
2022-11-24T09:56:37.753Z,1.23
2022-11-24T09:59:24.013Z,1.30
2022-11-24T10:01:52.174Z,1.50
2022-11-24T10:04:29.782Z,1.25
2022-11-24T10:07:08.729Z,1.50
2022-11-24T10:09:49.296Z,1.58
2022-11-24T10:12:16.600Z,1.10
2022-11-24T10:14:43.655Z,1.40
2022-11-24T10:17:45.741Z,1.45
2022-11-24T10:20:28.011Z,1.20
2022-11-24T10:23:07.086Z,1.60
2022-11-24T10:25:44.821Z,1.23
2022-11-24T10:28:14.789Z,1.40
2022-11-24T10:30:42.367Z,1.33
2022-11-24T10:33:28.773Z,1.10
2022-11-24T10:36:17.946Z,1.30
2022-11-24T10:38:49.282Z,1.30
2022-11-24T10:41:21.059Z,0.82
2022-11-24T10:43:48.153Z,1.50
2022-11-24T10:46:24.896Z,1.30
2022-11-24T10:49:00.864Z,1.08
2022-11-24T10:51:45.945Z,1.08
2022-11-24T10:54:17.712Z,1.15
2022-11-24T10:56:46.082Z,1.50
2022-11-24T10:59:25.516Z,1.40
2022-11-24T11:01:53.663Z,1.52
2022-11-24T11:04:22.164Z,1.25
2022-11-24T11:06:49.231Z,0.93
2022-11-24T11:09:22.918Z,1.10
2022-11-24T11:11:50.326Z,1.15
2022-11-24T11:14:35.592Z,1.13
2022-11-24T11:17:02.972Z,1.10
2022-11-24T11:19:48.319Z,1.40
2022-11-24T11:22:27.904Z,1.00
2022-11-24T11:25:17.917Z,1.30
2022-11-24T11:27:45.213Z,1.35
2022-11-24T11:35:53.919Z,1.35
2022-11-24T11:38:21.451Z,1.42
2022-11-24T11:40:51.093Z,1.17
2022-11-24T11:43:18.182Z,1.20
2022-11-24T11:45:46.602Z,1.13
2022-11-24T11:48:26.491Z,1.50
2022-11-24T11:51:22.272Z,1.17
2022-11-24T11:53:46.531Z,1.20
2022-11-24T11:56:35.156Z,1.10
2022-11-24T11:59:02.257Z,1.55
2022-11-24T12:01:32.400Z,1.30
2022-11-24T12:04:16.903Z,0.95
2022-11-24T12:06:49.913Z,1.25
2022-11-24T12:09:21.223Z,1.17
2022-11-24T12:11:54.734Z,1.08
2022-11-24T12:14:22.013Z,1.50
2022-11-24T12:17:06.339Z,1.10
2022-11-24T12:19:51.916Z,1.02
2022-11-24T12:22:27.632Z,1.10
2022-11-24T12:25:15.214Z,1.08
2022-11-24T12:27:50.851Z,1.23
2022-11-24T12:30:19.256Z,0.88
2022-11-24T12:33:10.446Z,1.20
2022-11-24T12:35:45.297Z,0.90
2022-11-24T12:38:31.189Z,1.17
2022-11-24T12:44:00.120Z,1.30
2022-11-24T12:46:30.189Z,1.48
2022-11-24T12:49:09.461Z,0.90
2022-11-24T12:51:37.886Z,1.45
2022-11-24T12:54:06.441Z,1.13
2022-11-24T12:56:38.910Z,1.27
2022-11-24T12:59:21.385Z,1.55
2022-11-24T13:02:00.563Z,0.93
2022-11-24T13:04:35.917Z,1.30
2022-11-24T13:07:23.776Z,1.10
2022-11-24T13:10:09.741Z,1.17
2022-11-24T13:12:53.279Z,0.88
2022-11-24T13:15:44.800Z,1.63
2022-11-24T13:18:27.477Z,1.48
2022-11-24T13:20:54.629Z,1.13
2022-11-24T13:23:24.342Z,1.05
2022-11-24T13:26:11.361Z,1.38
2022-11-24T13:29:03.594Z,1.13
2022-11-24T13:31:36.667Z,1.13
2022-11-24T13:34:23.781Z,1.23
2022-11-24T13:36:54.522Z,1.20
2022-11-24T13:39:22.305Z,1.20
2022-11-24T13:41:49.466Z,1.00
2022-11-24T13:44:16.584Z,1.00
2022-11-24T13:47:03.565Z,1.25
2022-11-24T13:49:42.635Z,1.13
2022-11-24T13:52:28.377Z,0.90
2022-11-24T13:54:55.496Z,1.00
2022-11-24T13:57:35.722Z,1.23
2022-11-24T14:00:03.846Z,1.00
2022-11-24T14:02:31.165Z,1.30
2022-11-24T14:04:58.960Z,1.20
2022-11-24T14:07:26.490Z,1.27
2022-11-24T14:09:54.069Z,1.08
2022-11-24T14:12:22.230Z,1.25
2022-11-24T14:14:50.172Z,1.20
2022-11-24T14:17:18.690Z,1.63
2022-11-24T14:19:49.818Z,1.38
2022-11-24T14:22:19.063Z,0.90
2022-11-24T14:24:47.431Z,1.15
2022-11-24T14:27:16.441Z,1.05
2022-11-24T14:29:54.501Z,1.10
2022-11-24T14:32:22.096Z,1.02
2022-11-24T14:34:49.303Z,0.93
2022-11-24T14:37:16.408Z,0.90
2022-11-24T14:39:43.980Z,0.90
2022-11-24T14:42:21.590Z,1.23
2022-11-24T14:44:59.628Z,0.93
2022-11-24T14:47:32.043Z,0.98
2022-11-24T14:50:07.767Z,0.93
2022-11-24T14:52:35.208Z,1.33
2022-11-24T14:55:17.627Z,1.35
2022-11-24T14:57:49.476Z,1.25
2022-11-24T15:00:21.212Z,1.05
2022-11-24T15:02:49.630Z,1.00
2022-11-24T15:05:17.179Z,1.10
2022-11-24T15:07:46.439Z,1.10
2022-11-24T15:10:19.813Z,1.55
2022-11-24T15:12:58.687Z,1.17
2022-11-24T15:15:36.835Z,1.00
2022-11-24T15:18:05.113Z,1.05
2022-11-24T15:20:32.793Z,1.08
2022-11-24T15:23:19.178Z,0.90
2022-11-24T15:25:46.369Z,0.90
2022-11-24T15:28:13.673Z,1.20
2022-11-24T15:30:40.851Z,1.20
2022-11-24T15:33:15.852Z,1.10
2022-11-24T15:35:43.185Z,1.10
2022-11-24T15:38:10.392Z,1.20
2022-11-24T15:40:38.104Z,2.00
2022-11-24T15:43:17.521Z,1.40
2022-11-24T15:45:44.634Z,1.85
2022-11-24T15:48:17.516Z,3.03
2022-11-24T15:50:45.674Z,1.92
2022-11-24T15:53:16.778Z,1.60
2022-11-24T15:55:43.939Z,1.75
2022-11-24T15:58:13.544Z,2.00
2022-11-24T16:00:40.828Z,1.83
2022-11-24T16:03:38.374Z,1.85
2022-11-24T16:05:56.474Z,1.80
2022-11-24T16:08:23.634Z,2.08
2022-11-24T16:10:51.283Z,1.67
2022-11-24T16:13:18.603Z,1.70
2022-11-24T16:15:46.839Z,1.95
2022-11-24T16:18:14.020Z,1.70
2022-11-24T16:20:41.563Z,1.95
2022-11-24T16:23:08.728Z,1.98
2022-11-24T16:25:35.849Z,1.75
2022-11-24T16:28:02.900Z,1.95
2022-11-24T16:30:30.002Z,1.52
2022-11-24T16:32:57.881Z,1.65
2022-11-24T16:35:25.058Z,1.52
2022-11-24T16:37:52.228Z,2.22
2022-11-24T16:40:19.478Z,1.77
2022-11-24T16:42:46.589Z,1.50
2022-11-24T16:45:13.804Z,2.00
2022-11-24T16:47:41.849Z,1.95
2022-11-24T16:50:12.973Z,1.80
2022-11-24T16:52:40.380Z,1.38
2022-11-24T16:55:09.675Z,1.50
2022-11-24T16:57:37.329Z,1.70
2022-11-24T17:00:05.559Z,1.50
2022-11-24T17:02:34.118Z,1.67
2022-11-24T17:05:01.639Z,1.75
2022-11-24T17:07:28.964Z,1.60
2022-11-24T17:09:56.154Z,1.70
2022-11-24T17:12:23.462Z,1.38
2022-11-24T17:15:16.306Z,1.10
2022-11-24T17:17:55.228Z,1.48
2022-11-24T17:20:25.282Z,1.45
2022-11-24T17:22:52.416Z,1.23
2022-11-24T17:25:19.502Z,1.48
2022-11-24T17:27:46.585Z,1.45
2022-11-24T17:30:13.962Z,1.38
2022-11-24T17:32:41.065Z,1.58
2022-11-24T17:35:08.581Z,1.42
2022-11-24T17:37:37.055Z,1.25
2022-11-24T17:40:27.375Z,1.67
2022-11-24T17:42:51.869Z,1.45
2022-11-24T17:45:18.994Z,1.23
2022-11-24T17:47:46.180Z,1.15
2022-11-24T17:50:13.353Z,1.55
2022-11-24T17:52:40.432Z,1.38
2022-11-24T17:55:07.645Z,1.45
2022-11-24T17:57:34.883Z,1.10
2022-11-24T18:00:01.952Z,1.15
2022-11-24T18:02:29.227Z,1.42
2022-11-24T18:04:56.395Z,1.60
2022-11-24T18:07:23.530Z,1.33
2022-11-24T18:09:50.647Z,1.58
2022-11-24T18:12:17.869Z,1.52
2022-11-24T18:14:44.945Z,1.08
2022-11-24T18:17:12.411Z,1.25
2022-11-24T18:19:39.553Z,1.65
2022-11-24T18:22:06.702Z,1.52
2022-11-24T18:24:33.833Z,1.42
2022-11-24T18:27:00.973Z,1.63
2022-11-24T18:29:28.290Z,1.30
2022-11-24T18:31:55.451Z,1.52
2022-11-24T18:34:24.736Z,1.30
2022-11-24T18:36:52.648Z,1.15
2022-11-24T18:39:19.810Z,1.38
2022-11-24T18:41:47.329Z,1.27
2022-11-24T18:44:14.626Z,1.42
2022-11-24T18:46:41.785Z,1.33
2022-11-24T18:49:09.322Z,1.38
2022-11-24T18:51:36.567Z,1.30
2022-11-24T18:54:05.264Z,1.50
2022-11-24T18:56:32.480Z,1.30
2022-11-24T18:58:59.566Z,1.33
2022-11-24T19:01:28.395Z,1.20
2022-11-24T19:06:28.632Z,1.27
2022-11-24T19:08:55.945Z,1.00
2022-11-24T19:11:24.562Z,1.17
2022-11-24T19:13:51.720Z,1.23
2022-11-24T19:16:20.885Z,1.15
2022-11-24T19:18:54.043Z,1.23
2022-11-24T19:21:22.039Z,1.30
2022-11-24T19:23:49.656Z,1.33
2022-11-24T19:26:16.738Z,1.48
2022-11-24T19:28:43.990Z,2.10
2022-11-24T19:31:12.875Z,1.50
2022-11-24T19:36:08.333Z,1.30
2022-11-24T19:38:36.006Z,1.27
2022-11-24T19:41:04.037Z,1.70
2022-11-24T19:43:31.343Z,1.40
2022-11-24T19:46:18.127Z,1.15
2022-11-24T19:48:48.693Z,1.63
2022-11-24T19:51:17.051Z,0.95
2022-11-24T19:53:44.709Z,1.30
2022-11-24T19:56:13.143Z,1.30
2022-11-24T19:58:40.752Z,1.27
2022-11-24T20:01:08.096Z,1.38
2022-11-24T20:03:35.776Z,1.10
2022-11-24T20:06:02.858Z,1.23
2022-11-24T20:08:30.810Z,1.30
2022-11-24T20:11:24.065Z,1.17
2022-11-24T20:13:51.732Z,1.60
2022-11-24T20:16:21.487Z,1.20
2022-11-24T20:18:48.671Z,1.55
2022-11-24T20:21:19.542Z,1.20
2022-11-24T20:23:47.824Z,1.30
2022-11-24T20:26:16.349Z,1.20
2022-11-24T20:28:43.562Z,1.10
2022-11-24T20:31:12.636Z,1.40
2022-11-24T20:33:41.397Z,1.23
2022-11-24T20:36:08.504Z,1.25
2022-11-24T20:38:37.043Z,1.00
2022-11-24T20:41:09.360Z,1.17
2022-11-24T20:43:37.382Z,1.23
2022-11-24T20:46:10.667Z,1.30
2022-11-24T20:48:38.278Z,1.20
2022-11-24T20:51:05.425Z,1.48
2022-11-24T20:53:32.802Z,1.23
2022-11-24T20:56:06.080Z,1.48
2022-11-24T20:58:34.541Z,1.23
2022-11-24T21:01:08.555Z,1.17
2022-11-24T21:03:42.880Z,1.13
2022-11-24T21:06:10.914Z,1.00
2022-11-24T21:08:38.683Z,1.40
2022-11-24T21:11:08.720Z,1.13
2022-11-24T21:13:36.540Z,1.30
2022-11-24T21:16:17.894Z,1.45
2022-11-24T21:18:46.302Z,1.75
2022-11-24T21:21:14.134Z,1.58
2022-11-24T21:23:41.633Z,1.52
2022-11-24T21:26:16.290Z,1.60
2022-11-24T21:28:44.969Z,1.52
2022-11-24T21:31:13.578Z,2.20
2022-11-24T21:33:42.008Z,1.80
2022-11-24T21:36:09.409Z,1.40
2022-11-24T21:38:36.601Z,1.58
2022-11-24T21:41:04.863Z,1.55
2022-11-24T21:43:32.683Z,1.42
2022-11-24T21:46:03.000Z,1.55
2022-11-24T21:48:30.827Z,1.90
2022-11-24T21:51:01.583Z,1.63
2022-11-24T21:53:32.883Z,1.60
2022-11-24T21:56:01.055Z,1.42
2022-11-24T21:58:28.763Z,1.42
2022-11-24T22:01:01.462Z,1.70
2022-11-24T22:03:28.551Z,1.60
2022-11-24T22:05:56.506Z,1.67
2022-11-24T22:08:24.478Z,1.48
2022-11-24T22:10:51.894Z,1.50
2022-11-24T22:13:19.433Z,1.63
2022-11-24T22:15:46.655Z,1.55
2022-11-24T22:18:13.836Z,1.77
2022-11-24T22:20:41.000Z,1.50
2022-11-24T22:23:08.158Z,1.80
2022-11-24T22:25:35.347Z,1.35
2022-11-24T22:28:02.777Z,1.60
2022-11-24T22:30:29.955Z,1.67
2022-11-24T22:32:57.436Z,1.50
2022-11-24T22:35:24.520Z,1.70
2022-11-24T22:37:52.464Z,1.50
2022-11-24T22:40:19.584Z,1.30
2022-11-24T22:42:46.734Z,1.40
2022-11-24T22:45:13.872Z,1.40
2022-11-24T22:47:40.924Z,1.60
2022-11-24T22:50:08.313Z,1.20
2022-11-24T22:52:35.490Z,1.58
2022-11-24T22:55:02.552Z,1.40
2022-11-24T22:57:29.660Z,1.40
2022-11-24T22:59:56.773Z,1.75
2022-11-24T23:02:23.989Z,1.27
2022-11-24T23:04:51.085Z,1.60
2022-11-24T23:07:18.195Z,1.67
2022-11-24T23:09:47.539Z,1.75
2022-11-24T23:12:14.666Z,1.42
2022-11-24T23:14:41.732Z,1.23
2022-11-24T23:17:08.938Z,1.60
2022-11-24T23:19:36.016Z,1.52
2022-11-24T23:22:03.121Z,1.33
2022-11-24T23:24:30.214Z,1.33
2022-11-24T23:26:57.364Z,1.45
2022-11-24T23:29:24.479Z,1.25
2022-11-24T23:31:51.848Z,2.03
2022-11-24T23:34:18.951Z,1.33
2022-11-24T23:36:46.065Z,1.45
2022-11-24T23:39:14.444Z,1.75
2022-11-24T23:41:41.631Z,1.13
2022-11-24T23:44:08.909Z,1.38
2022-11-24T23:46:36.092Z,1.33
2022-11-24T23:49:03.244Z,1.25
2022-11-24T23:51:31.507Z,1.48
2022-11-24T23:53:59.374Z,1.30
2022-11-24T23:56:29.262Z,1.30
2022-11-24T23:58:56.396Z,1.60
